Hlavní strana
METAR-TAF:

METAR-TAF

Letiště :

Springfield-Beckley Municipal Airport

Springfield, Ohio, Spojené státy americké

zeměpisná šířka: 39-50N, zeměpisná délka: 083-50W, výška: 321 m

Aktuální stav počasí

Zpráva byla vytvořena před 39 minutami, v 06:56 UTC
Západoseverozápadní vítr 5 kt
Teplota 6°C
Vlhkost vzduchu 93%
Tlak 1019 hPa
Viditelnost: 16.1 km
Zataženo ve výšce 6500 ft

METAR: KSGH 020656Z AUTO 30005KT 10SM OVC065 06/05 A3009 RMK AO2 SLP197 T00560050

Čas: 03:35 (07:35 UTC)


TAF: chybějící

Stav a předpovědi počasí z více než 4 000 letišť (zprávy METAR a TAF).

Červené a žluté tečky na mapě představují dostupné meteorologické stanice.

Když kurzor umístíte na tečku, zobrazí se název stanice.

Pak kliknutím zobrazíte stav a předpověď počasí.

Chcete-li změnit mapu, kliknutím na zelené tlačítko se znaménkem +mapu přiblížíte, kliknutím na zelené tlačítko se znaménkem – mapu oddálíte a kliknutím na zelené šipky přejdete na sousední mapy.


METAR-TAF: